createdAt,value
2016-06-21T00:00:09.147Z,22.45
2016-06-21T00:01:09.160Z,22.37
2016-06-21T00:02:09.764Z,22.42
2016-06-21T00:03:10.599Z,22.4
2016-06-21T00:04:09.169Z,22.37
2016-06-21T00:05:09.796Z,22.35
2016-06-21T00:06:09.787Z,22.42
2016-06-21T00:07:09.173Z,22.39
2016-06-21T00:08:09.807Z,22.39
2016-06-21T00:09:09.194Z,22.27
2016-06-21T00:10:09.817Z,22.36
2016-06-21T00:11:08.615Z,22.39
2016-06-21T00:12:10.589Z,22.42
2016-06-21T00:13:08.579Z,22.37
2016-06-21T00:14:10.274Z,22.33
2016-06-21T00:15:09.210Z,22.39
2016-06-21T00:16:09.835Z,22.39
2016-06-21T00:17:09.854Z,22.42
2016-06-21T00:18:09.245Z,22.28
2016-06-21T00:19:09.236Z,22.42
2016-06-21T00:20:09.851Z,22.46
2016-06-21T00:21:09.243Z,22.33
2016-06-21T00:22:09.262Z,22.42
2016-06-21T00:23:10.458Z,22.42
2016-06-21T00:24:09.271Z,22.37
2016-06-21T00:25:10.065Z,22.27
2016-06-21T00:26:09.265Z,22.4
2016-06-21T00:27:09.273Z,22.4
2016-06-21T00:28:09.279Z,22.28
2016-06-21T00:29:09.279Z,22.4
2016-06-21T00:30:08.671Z,22.31
2016-06-21T00:31:09.320Z,22.3
2016-06-21T00:32:09.293Z,22.3
2016-06-21T00:33:09.298Z,22.42
2016-06-21T00:34:08.721Z,22.3
2016-06-21T00:35:09.930Z,22.28
2016-06-21T00:36:10.139Z,22.31
2016-06-21T00:37:09.943Z,22.42
2016-06-21T00:38:09.329Z,22.39
2016-06-21T00:39:09.965Z,22.33
2016-06-21T00:40:09.345Z,22.3
2016-06-21T00:41:09.970Z,22.3
2016-06-21T00:42:09.960Z,22.39
2016-06-21T00:43:09.967Z,22.3
2016-06-21T00:44:09.970Z,22.45
2016-06-21T00:45:10.081Z,22.43
2016-06-21T00:46:09.993Z,22.28
2016-06-21T00:47:09.673Z,22.31
2016-06-21T00:48:09.378Z,22.31
2016-06-21T00:49:09.383Z,22.3
2016-06-21T00:50:09.383Z,22.31
2016-06-21T00:51:10.008Z,22.25
2016-06-21T00:52:09.392Z,22.36
2016-06-21T00:53:09.396Z,22.25
2016-06-21T00:54:08.782Z,22.31
2016-06-21T00:55:08.807Z,22.27
2016-06-21T00:56:10.379Z,22.25
2016-06-21T00:57:09.412Z,22.33
2016-06-21T00:58:10.041Z,22.3
2016-06-21T00:59:10.063Z,22.3
2016-06-21T01:00:09.447Z,22.25
2016-06-21T01:01:10.091Z,22.31
2016-06-21T01:02:08.831Z,22.25
2016-06-21T01:03:09.470Z,22.25
2016-06-21T01:04:08.842Z,22.27
2016-06-21T01:05:09.459Z,22.3
2016-06-21T01:06:10.080Z,22.36
2016-06-21T01:07:09.912Z,22.27
2016-06-21T01:08:09.475Z,22.33
2016-06-21T01:09:09.478Z,22.28
2016-06-21T01:10:09.486Z,22.3
2016-06-21T01:11:10.494Z,22.3
2016-06-21T01:12:10.159Z,22.3
2016-06-21T01:13:09.491Z,22.28
2016-06-21T01:14:10.116Z,22.3
2016-06-21T01:15:09.521Z,22.3
2016-06-21T01:16:09.522Z,22.28
2016-06-21T01:17:10.173Z,22.31
2016-06-21T01:18:08.918Z,22.27
2016-06-21T01:19:09.522Z,22.33
2016-06-21T01:20:10.542Z,22.3
2016-06-21T01:21:09.537Z,22.28
2016-06-21T01:22:10.163Z,22.25
2016-06-21T01:23:10.171Z,22.31
2016-06-21T01:24:09.025Z,22.3
2016-06-21T01:25:09.557Z,22.33
2016-06-21T01:26:10.174Z,22.25
2016-06-21T01:27:09.551Z,22.28
2016-06-21T01:28:09.575Z,22.28
2016-06-21T01:29:10.466Z,22.25
2016-06-21T01:30:09.569Z,22.3
2016-06-21T01:31:10.078Z,22.27
2016-06-21T01:32:09.594Z,22.33
2016-06-21T01:33:10.215Z,22.28
2016-06-21T01:34:10.203Z,22.28
2016-06-21T01:35:09.596Z,22.27
2016-06-21T01:36:09.607Z,22.31
2016-06-21T01:37:09.604Z,22.35
2016-06-21T01:38:09.618Z,22.3
2016-06-21T01:39:09.626Z,22.3
2016-06-21T01:40:10.239Z,22.25
2016-06-21T01:41:09.634Z,22.27
2016-06-21T01:42:09.865Z,22.3
2016-06-21T01:43:09.642Z,22.28
2016-06-21T01:44:09.643Z,22.28
2016-06-21T01:45:10.274Z,22.3
2016-06-21T01:46:09.663Z,22.28
2016-06-21T01:47:09.655Z,22.43
2016-06-21T01:48:10.279Z,22.39
2016-06-21T01:49:09.702Z,22.35
2016-06-21T01:50:10.291Z,22.31
2016-06-21T01:51:11.197Z,22.25
2016-06-21T01:52:09.073Z,22.24
2016-06-21T01:53:10.099Z,22.4
2016-06-21T01:54:09.700Z,22.39
2016-06-21T01:55:09.700Z,22.24
2016-06-21T01:56:10.335Z,22.37
2016-06-21T01:57:09.739Z,22.42
2016-06-21T01:58:10.360Z,22.31
2016-06-21T01:59:10.349Z,22.36
2016-06-21T02:00:10.353Z,22.33
2016-06-21T02:01:09.750Z,22.36
2016-06-21T02:02:09.975Z,22.42
2016-06-21T02:03:10.357Z,22.36
2016-06-21T02:04:10.361Z,22.4
2016-06-21T02:05:09.761Z,22.43
2016-06-21T02:06:11.102Z,22.39
2016-06-21T02:07:09.768Z,22.35
2016-06-21T02:08:10.415Z,22.4
2016-06-21T02:09:09.790Z,22.37
2016-06-21T02:10:10.395Z,22.46
2016-06-21T02:11:10.467Z,22.43
2016-06-21T02:12:10.403Z,22.37
2016-06-21T02:13:10.592Z,22.42
2016-06-21T02:14:10.427Z,22.35
2016-06-21T02:15:10.158Z,22.31
2016-06-21T02:16:09.807Z,22.43
2016-06-21T02:17:09.812Z,22.4
2016-06-21T02:18:10.432Z,22.42
2016-06-21T02:19:09.259Z,22.47
2016-06-21T02:20:09.202Z,22.4
2016-06-21T02:21:10.455Z,22.47
2016-06-21T02:22:09.235Z,22.46
2016-06-21T02:23:09.213Z,22.45
2016-06-21T02:24:10.932Z,22.43
2016-06-21T02:25:10.467Z,22.4
2016-06-21T02:26:10.489Z,22.4
2016-06-21T02:27:09.853Z,22.45
2016-06-21T02:28:09.346Z,22.43
2016-06-21T02:29:09.874Z,22.43
2016-06-21T02:30:09.878Z,22.39
2016-06-21T02:31:10.499Z,22.42
2016-06-21T02:32:10.494Z,22.49
2016-06-21T02:33:10.511Z,22.43
2016-06-21T02:34:09.892Z,22.43
2016-06-21T02:35:10.794Z,22.42
2016-06-21T02:36:09.922Z,22.4
2016-06-21T02:37:10.540Z,22.42
2016-06-21T02:38:10.534Z,22.42
2016-06-21T02:39:09.921Z,22.42
2016-06-21T02:40:10.542Z,22.42
2016-06-21T02:41:09.944Z,22.36
2016-06-21T02:42:09.950Z,22.42
2016-06-21T02:43:10.555Z,22.43
2016-06-21T02:44:09.955Z,22.42
2016-06-21T02:45:09.949Z,22.45
2016-06-21T02:46:10.667Z,22.39
2016-06-21T02:47:09.975Z,22.42
2016-06-21T02:48:09.551Z,22.4
2016-06-21T02:49:09.993Z,22.43
2016-06-21T02:50:11.186Z,22.4
2016-06-21T02:51:10.607Z,22.47
2016-06-21T02:52:09.978Z,22.39
2016-06-21T02:53:10.623Z,22.39
2016-06-21T02:54:10.613Z,22.42
2016-06-21T02:55:10.011Z,22.35
2016-06-21T02:56:10.630Z,22.42
2016-06-21T02:57:09.796Z,22.42
2016-06-21T02:58:10.634Z,22.4
2016-06-21T02:59:10.642Z,22.39
2016-06-21T03:00:10.662Z,22.43
2016-06-21T03:01:11.761Z,22.42
2016-06-21T03:02:09.433Z,22.4
2016-06-21T03:03:09.441Z,22.42
2016-06-21T03:04:10.046Z,22.43
2016-06-21T03:05:10.058Z,22.42
2016-06-21T03:06:10.066Z,22.39
2016-06-21T03:07:09.445Z,22.37
2016-06-21T03:08:10.225Z,22.42
2016-06-21T03:09:10.712Z,22.37
2016-06-21T03:10:10.104Z,22.39
2016-06-21T03:11:10.712Z,22.36
2016-06-21T03:12:11.567Z,22.42
2016-06-21T03:13:10.097Z,22.27
2016-06-21T03:14:10.101Z,22.27
2016-06-21T03:15:10.109Z,22.31
2016-06-21T03:16:10.119Z,22.37
2016-06-21T03:17:10.121Z,22.3
2016-06-21T03:18:10.111Z,22.27
2016-06-21T03:19:10.759Z,22.3
2016-06-21T03:20:10.811Z,22.28
2016-06-21T03:21:11.842Z,22.3
2016-06-21T03:22:10.138Z,22.31
2016-06-21T03:23:11.251Z,22.27
2016-06-21T03:24:10.780Z,22.28
2016-06-21T03:25:10.774Z,22.24
2016-06-21T03:26:10.172Z,22.33
2016-06-21T03:27:10.782Z,22.27
2016-06-21T03:28:10.791Z,22.28
2016-06-21T03:29:10.802Z,22.27
2016-06-21T03:30:10.803Z,22.25
2016-06-21T03:31:10.810Z,22.39
2016-06-21T03:32:11.894Z,22.31
2016-06-21T03:33:09.589Z,22.28
2016-06-21T03:34:11.379Z,22.3
2016-06-21T03:35:10.823Z,22.27
2016-06-21T03:36:09.597Z,22.27
2016-06-21T03:37:10.222Z,22.28
2016-06-21T03:38:10.233Z,22.31
2016-06-21T03:39:10.852Z,22.27
2016-06-21T03:40:10.243Z,22.27
2016-06-21T03:41:10.234Z,22.28
2016-06-21T03:42:10.864Z,22.27
2016-06-21T03:43:11.931Z,22.3
2016-06-21T03:44:10.278Z,22.3
2016-06-21T03:45:11.431Z,22.27
2016-06-21T03:46:10.255Z,22.27
2016-06-21T03:47:10.269Z,22.37
2016-06-21T03:48:10.889Z,22.33
2016-06-21T03:49:10.895Z,22.27
2016-06-21T03:50:10.276Z,22.27
2016-06-21T03:51:10.909Z,22.28
2016-06-21T03:52:10.291Z,22.35
2016-06-21T03:53:10.907Z,22.33
2016-06-21T03:54:11.610Z,22.27
2016-06-21T03:55:09.698Z,22.28
2016-06-21T03:56:11.043Z,22.27
2016-06-21T03:57:10.934Z,22.25
2016-06-21T03:58:10.936Z,22.28
2016-06-21T03:59:10.941Z,22.35
2016-06-21T04:00:10.989Z,22.37
2016-06-21T04:01:10.966Z,22.27
2016-06-21T04:02:10.341Z,22.28
2016-06-21T04:03:10.357Z,22.25
2016-06-21T04:04:10.358Z,22.3
2016-06-21T04:05:11.210Z,22.31
2016-06-21T04:06:10.372Z,22.31
2016-06-21T04:07:10.361Z,22.35
2016-06-21T04:08:10.994Z,22.28
2016-06-21T04:09:10.389Z,22.31
2016-06-21T04:10:09.768Z,22.28
2016-06-21T04:11:10.390Z,22.33
2016-06-21T04:12:10.406Z,22.28
2016-06-21T04:13:10.450Z,22.33
2016-06-21T04:14:10.402Z,22.27
2016-06-21T04:15:11.024Z,22.33
2016-06-21T04:16:11.206Z,22.25
2016-06-21T04:17:11.042Z,22.3
2016-06-21T04:18:10.049Z,22.24
2016-06-21T04:19:11.049Z,22.31
2016-06-21T04:20:09.878Z,22.37
2016-06-21T04:21:10.435Z,22.25
2016-06-21T04:22:10.438Z,22.25
2016-06-21T04:23:11.075Z,22.28
2016-06-21T04:24:09.830Z,22.25
2016-06-21T04:25:10.472Z,22.22
2016-06-21T04:26:10.467Z,22.28
2016-06-21T04:27:25.300Z,22.36
2016-06-21T04:28:10.466Z,22.22
2016-06-21T04:29:10.777Z,22.35
2016-06-21T04:30:10.485Z,22.33
2016-06-21T04:31:10.491Z,22.27
2016-06-21T04:32:10.493Z,22.28
2016-06-21T04:33:09.876Z,22.35
2016-06-21T04:34:11.114Z,22.3
2016-06-21T04:35:10.520Z,22.27
2016-06-21T04:36:10.511Z,22.36
2016-06-21T04:37:10.517Z,22.33
2016-06-21T04:38:11.734Z,22.25
2016-06-21T04:39:10.529Z,22.28
2016-06-21T04:40:10.689Z,22.36
2016-06-21T04:41:11.171Z,22.31
2016-06-21T04:42:09.925Z,22.33
2016-06-21T04:43:10.542Z,22.24
2016-06-21T04:44:11.171Z,22.24
2016-06-21T04:45:09.939Z,22.25
2016-06-21T04:46:11.186Z,22.25
2016-06-21T04:47:11.181Z,22.25
2016-06-21T04:48:11.186Z,22.24
2016-06-21T04:49:11.533Z,22.27
2016-06-21T04:50:11.206Z,22.24
2016-06-21T04:51:11.217Z,22.22
2016-06-21T04:52:09.969Z,22.25
2016-06-21T04:53:11.218Z,22.31
2016-06-21T04:54:10.629Z,22.27
2016-06-21T04:55:10.603Z,22.17
2016-06-21T04:56:11.231Z,22.25
2016-06-21T04:57:11.234Z,22.27
2016-06-21T04:58:10.625Z,22.25
2016-06-21T04:59:10.616Z,22.22
2016-06-21T05:00:11.601Z,22.24
2016-06-21T05:01:11.249Z,22.28
2016-06-21T05:02:10.031Z,22.28
2016-06-21T05:03:11.254Z,22.25
2016-06-21T05:04:10.655Z,22.25
2016-06-21T05:05:10.036Z,22.24
2016-06-21T05:06:10.046Z,22.3
2016-06-21T05:07:11.287Z,22.28
2016-06-21T05:08:10.660Z,22.33
2016-06-21T05:09:10.055Z,22.25
2016-06-21T05:10:11.298Z,22.25
2016-06-21T05:11:10.681Z,22.31
2016-06-21T05:12:10.694Z,22.33
2016-06-21T05:13:10.722Z,22.22
2016-06-21T05:14:11.360Z,22.33
2016-06-21T05:15:11.318Z,22.31
2016-06-21T05:16:10.715Z,22.27
2016-06-21T05:17:10.710Z,22.24
2016-06-21T05:18:10.706Z,22.36
2016-06-21T05:19:10.725Z,22.27
2016-06-21T05:20:11.348Z,22.27
2016-06-21T05:21:11.343Z,22.33
2016-06-21T05:22:11.350Z,22.27
2016-06-21T05:23:10.737Z,22.35
2016-06-21T05:24:12.304Z,22.3
2016-06-21T05:25:10.749Z,22.31
2016-06-21T05:26:10.755Z,22.24
2016-06-21T05:27:10.762Z,22.27
2016-06-21T05:28:11.382Z,22.27
2016-06-21T05:29:10.782Z,22.33
2016-06-21T05:30:10.778Z,22.27
2016-06-21T05:31:10.781Z,22.28
2016-06-21T05:32:11.462Z,22.33
2016-06-21T05:33:12.377Z,22.28
2016-06-21T05:34:10.802Z,22.27
2016-06-21T05:35:12.145Z,22.28
2016-06-21T05:36:10.808Z,22.35
2016-06-21T05:37:11.419Z,22.3
2016-06-21T05:38:10.827Z,22.33
2016-06-21T05:39:10.829Z,22.31
2016-06-21T05:40:10.831Z,22.35
2016-06-21T05:41:10.832Z,22.3
2016-06-21T05:42:11.460Z,22.33
2016-06-21T05:43:11.454Z,22.31
2016-06-21T05:44:12.439Z,22.25
2016-06-21T05:45:10.844Z,22.28
2016-06-21T05:46:12.288Z,22.28
2016-06-21T05:47:11.485Z,22.31
2016-06-21T05:48:11.485Z,22.25
2016-06-21T05:49:10.872Z,22.27
2016-06-21T05:50:10.871Z,22.3
2016-06-21T05:51:11.511Z,22.3
2016-06-21T05:52:10.886Z,22.25
2016-06-21T05:53:10.888Z,22.28
2016-06-21T05:54:10.287Z,22.35
2016-06-21T05:55:10.900Z,22.27
2016-06-21T05:56:11.526Z,22.36
2016-06-21T05:57:12.457Z,22.28
2016-06-21T05:58:10.918Z,22.25
2016-06-21T05:59:11.528Z,22.33
2016-06-21T06:00:10.316Z,22.27
2016-06-21T06:01:10.926Z,22.28
2016-06-21T06:02:11.560Z,22.3
2016-06-21T06:03:11.577Z,22.31
2016-06-21T06:04:10.952Z,22.22
2016-06-21T06:05:11.567Z,22.31
2016-06-21T06:06:10.954Z,22.33
2016-06-21T06:07:11.601Z,22.33
2016-06-21T06:08:12.376Z,22.28
2016-06-21T06:09:10.994Z,22.3
2016-06-21T06:10:10.978Z,22.33
2016-06-21T06:11:11.607Z,22.3
2016-06-21T06:12:11.615Z,22.35
2016-06-21T06:13:10.989Z,22.39
2016-06-21T06:14:11.114Z,22.24
2016-06-21T06:15:11.627Z,22.35
2016-06-21T06:16:11.613Z,22.3
2016-06-21T06:17:12.555Z,22.27
2016-06-21T06:18:11.021Z,22.31
2016-06-21T06:19:12.729Z,22.33
2016-06-21T06:20:11.636Z,22.33
2016-06-21T06:21:11.034Z,22.33
2016-06-21T06:22:11.035Z,22.3
2016-06-21T06:23:11.039Z,22.33
2016-06-21T06:24:11.060Z,22.37
2016-06-21T06:25:11.672Z,22.27
2016-06-21T06:26:11.677Z,22.3
2016-06-21T06:27:11.727Z,22.3
2016-06-21T06:28:11.063Z,22.31
2016-06-21T06:29:11.094Z,22.3
2016-06-21T06:30:12.602Z,22.28
2016-06-21T06:31:11.076Z,22.27
2016-06-21T06:32:11.096Z,22.3
2016-06-21T06:33:11.086Z,22.3
2016-06-21T06:34:11.096Z,22.28
2016-06-21T06:35:11.107Z,22.3
2016-06-21T06:36:11.711Z,22.28
2016-06-21T06:37:11.781Z,22.31
2016-06-21T06:38:11.732Z,22.28
2016-06-21T06:39:11.734Z,22.28
2016-06-21T06:40:11.109Z,22.25
2016-06-21T06:41:12.588Z,22.24
2016-06-21T06:42:11.769Z,22.4
2016-06-21T06:43:11.759Z,22.37
2016-06-21T06:44:11.768Z,22.42
2016-06-21T06:45:11.143Z,22.37
2016-06-21T06:46:11.150Z,22.35
2016-06-21T06:47:11.157Z,22.27
2016-06-21T06:48:11.774Z,22.31
2016-06-21T06:49:11.169Z,22.39
2016-06-21T06:50:12.770Z,22.35
2016-06-21T06:51:11.810Z,22.39
2016-06-21T06:52:12.919Z,22.4
2016-06-21T06:53:11.803Z,22.25
2016-06-21T06:54:10.578Z,22.24
2016-06-21T06:55:11.199Z,22.31
2016-06-21T06:56:11.829Z,22.25
2016-06-21T06:57:11.216Z,22.3
2016-06-21T06:58:11.841Z,22.28
2016-06-21T06:59:10.607Z,22.35
2016-06-21T07:00:11.843Z,22.3
2016-06-21T07:01:11.267Z,22.24
2016-06-21T07:02:11.863Z,22.25
2016-06-21T07:03:10.618Z,22.27
2016-06-21T07:04:11.864Z,22.25
2016-06-21T07:05:11.874Z,22.27
2016-06-21T07:06:11.275Z,22.3
2016-06-21T07:07:11.262Z,22.35
2016-06-21T07:08:11.896Z,22.3
2016-06-21T07:09:11.284Z,22.33
2016-06-21T07:10:11.279Z,22.25
2016-06-21T07:11:11.907Z,22.3
2016-06-21T07:12:11.917Z,22.35
2016-06-21T07:13:11.901Z,22.27
2016-06-21T07:14:12.871Z,22.31
2016-06-21T07:15:11.354Z,22.27
2016-06-21T07:16:11.930Z,22.28
2016-06-21T07:17:11.315Z,22.31
2016-06-21T07:18:11.942Z,22.33
2016-06-21T07:19:11.339Z,22.39
2016-06-21T07:20:11.963Z,22.31
2016-06-21T07:21:11.347Z,22.27
2016-06-21T07:22:11.356Z,22.33
2016-06-21T07:23:12.165Z,22.35
2016-06-21T07:24:12.002Z,22.27
2016-06-21T07:25:11.355Z,22.24
2016-06-21T07:26:11.978Z,22.28
2016-06-21T07:27:11.418Z,22.31
2016-06-21T07:28:12.003Z,22.28
2016-06-21T07:29:11.989Z,22.4
2016-06-21T07:30:11.998Z,22.27
2016-06-21T07:31:12.007Z,22.43
2016-06-21T07:32:12.026Z,22.42
2016-06-21T07:33:12.010Z,22.4
2016-06-21T07:34:12.294Z,22.37
2016-06-21T07:35:11.410Z,22.33
2016-06-21T07:36:11.827Z,22.42
2016-06-21T07:37:11.422Z,22.39
2016-06-21T07:38:11.473Z,22.4
2016-06-21T07:39:11.458Z,22.39
2016-06-21T07:40:10.822Z,22.47
2016-06-21T07:41:12.071Z,22.39
2016-06-21T07:42:12.087Z,22.45
2016-06-21T07:43:11.463Z,22.43
2016-06-21T07:44:11.469Z,22.42
2016-06-21T07:45:12.351Z,22.42
2016-06-21T07:46:11.489Z,22.39
2016-06-21T07:47:11.983Z,22.4
2016-06-21T07:48:11.474Z,22.42
2016-06-21T07:49:10.857Z,22.42
2016-06-21T07:50:12.115Z,22.43
2016-06-21T07:51:12.108Z,22.4
2016-06-21T07:52:11.483Z,22.42
2016-06-21T07:53:10.879Z,22.39
2016-06-21T07:54:12.128Z,22.42
2016-06-21T07:55:11.506Z,22.43
2016-06-21T07:56:12.352Z,22.4
2016-06-21T07:57:12.127Z,22.43
2016-06-21T07:58:12.131Z,22.4
2016-06-21T07:59:12.143Z,22.42
2016-06-21T08:00:11.547Z,22.4
2016-06-21T08:01:12.157Z,22.45
2016-06-21T08:02:12.162Z,22.42
2016-06-21T08:03:12.170Z,22.39
2016-06-21T08:04:12.174Z,22.4
2016-06-21T08:05:12.172Z,22.42
2016-06-21T08:06:12.182Z,22.43
2016-06-21T08:07:12.570Z,22.4
2016-06-21T08:08:10.960Z,22.37
2016-06-21T08:09:12.135Z,22.37
2016-06-21T08:10:10.966Z,22.43
2016-06-21T08:11:11.592Z,22.36
2016-06-21T08:12:11.596Z,22.42
2016-06-21T08:13:12.215Z,22.45
2016-06-21T08:14:12.232Z,22.42
2016-06-21T08:15:12.230Z,22.4
2016-06-21T08:16:11.615Z,22.42
2016-06-21T08:17:11.675Z,22.43
2016-06-21T08:18:12.885Z,22.43
2016-06-21T08:19:11.657Z,22.4
2016-06-21T08:20:11.697Z,22.37
2016-06-21T08:21:11.033Z,22.36
2016-06-21T08:22:12.267Z,22.42
2016-06-21T08:23:12.281Z,22.42
2016-06-21T08:24:11.925Z,22.37
2016-06-21T08:25:11.680Z,22.42
2016-06-21T08:26:11.680Z,22.37
2016-06-21T08:27:11.064Z,22.45
2016-06-21T08:28:11.690Z,22.43
2016-06-21T08:29:13.461Z,22.42
2016-06-21T08:30:11.746Z,22.39
2016-06-21T08:31:12.508Z,22.42
2016-06-21T08:32:11.709Z,22.39
2016-06-21T08:33:11.704Z,22.43
2016-06-21T08:34:12.334Z,22.42
2016-06-21T08:35:11.710Z,22.42
2016-06-21T08:36:11.758Z,22.37
2016-06-21T08:37:11.737Z,22.33
2016-06-21T08:38:11.789Z,22.39
2016-06-21T08:39:12.364Z,22.43
2016-06-21T08:40:13.460Z,22.42
2016-06-21T08:41:11.738Z,22.37
2016-06-21T08:42:12.578Z,22.47
2016-06-21T08:43:11.764Z,22.54
2016-06-21T08:44:12.396Z,22.54
2016-06-21T08:45:11.776Z,22.45
2016-06-21T08:46:12.418Z,22.51
2016-06-21T08:47:12.395Z,22.47
2016-06-21T08:48:11.801Z,22.51
2016-06-21T08:49:11.807Z,22.6
2016-06-21T08:50:12.424Z,22.6
2016-06-21T08:51:13.280Z,22.52
2016-06-21T08:52:11.801Z,22.49
2016-06-21T08:53:12.781Z,22.54
2016-06-21T08:54:11.819Z,22.45
2016-06-21T08:55:12.435Z,22.52
2016-06-21T08:56:12.436Z,22.55
2016-06-21T08:57:12.457Z,22.52
2016-06-21T08:58:12.468Z,22.58
2016-06-21T08:59:12.465Z,22.58
2016-06-21T09:00:12.478Z,22.61
2016-06-21T09:01:12.482Z,22.47
2016-06-21T09:02:13.257Z,22.51
2016-06-21T09:03:11.884Z,22.55
2016-06-21T09:04:12.741Z,22.6
2016-06-21T09:05:11.879Z,22.54
2016-06-21T09:06:12.494Z,22.61
2016-06-21T09:07:11.883Z,22.51
2016-06-21T09:08:12.517Z,22.52
2016-06-21T09:09:11.898Z,22.51
2016-06-21T09:10:11.908Z,22.58
2016-06-21T09:11:12.529Z,22.58
2016-06-21T09:12:12.529Z,22.61
2016-06-21T09:13:13.535Z,22.61
2016-06-21T09:14:11.324Z,22.49
2016-06-21T09:15:12.569Z,22.58
2016-06-21T09:16:12.555Z,22.58
2016-06-21T09:17:12.569Z,22.57
2016-06-21T09:18:11.999Z,22.58
2016-06-21T09:19:12.572Z,22.61
2016-06-21T09:20:11.975Z,22.54
2016-06-21T09:21:12.584Z,22.6
2016-06-21T09:22:12.593Z,22.55
2016-06-21T09:23:12.657Z,22.54
2016-06-21T09:24:13.363Z,22.55
2016-06-21T09:25:12.002Z,22.52
2016-06-21T09:26:12.855Z,22.58
2016-06-21T09:27:11.379Z,22.52
2016-06-21T09:28:12.027Z,22.65
2016-06-21T09:29:12.633Z,22.62
2016-06-21T09:30:12.639Z,22.6
2016-06-21T09:31:12.018Z,22.58
2016-06-21T09:32:12.655Z,22.58
2016-06-21T09:33:12.042Z,22.64
2016-06-21T09:34:12.657Z,22.6
2016-06-21T09:35:13.791Z,22.55
2016-06-21T09:36:12.668Z,22.57
2016-06-21T09:37:12.912Z,22.58
2016-06-21T09:38:12.670Z,22.57
2016-06-21T09:39:12.122Z,22.54
2016-06-21T09:40:12.084Z,22.61
2016-06-21T09:41:12.698Z,22.64
2016-06-21T09:42:12.742Z,22.6
2016-06-21T09:43:12.091Z,22.55
2016-06-21T09:44:12.729Z,22.6
2016-06-21T09:45:12.098Z,22.64
2016-06-21T09:46:13.388Z,22.57
2016-06-21T09:47:12.117Z,22.61
2016-06-21T09:48:12.271Z,22.67
2016-06-21T09:49:12.126Z,22.6
2016-06-21T09:50:12.135Z,22.64
2016-06-21T09:51:12.764Z,22.58
2016-06-21T09:52:12.767Z,22.67
2016-06-21T09:53:12.766Z,22.68
2016-06-21T09:54:12.785Z,22.68
2016-06-21T09:55:12.160Z,22.67
2016-06-21T09:56:12.783Z,22.64
2016-06-21T09:57:13.198Z,22.6
2016-06-21T09:58:12.809Z,22.58
2016-06-21T09:59:12.799Z,22.61
2016-06-21T10:00:12.820Z,22.62
2016-06-21T10:01:12.801Z,22.64
2016-06-21T10:02:12.811Z,22.65
2016-06-21T10:03:12.860Z,22.64
2016-06-21T10:04:12.849Z,22.58
2016-06-21T10:05:12.833Z,22.57
2016-06-21T10:06:12.223Z,22.61
2016-06-21T10:07:12.235Z,22.64
2016-06-21T10:08:13.843Z,22.62
2016-06-21T10:09:12.861Z,22.65
2016-06-21T10:10:12.268Z,22.72
2016-06-21T10:11:12.866Z,22.67
2016-06-21T10:12:12.882Z,22.76
2016-06-21T10:13:12.275Z,22.76
2016-06-21T10:14:12.891Z,22.68
2016-06-21T10:15:12.890Z,22.7
2016-06-21T10:16:12.282Z,22.68
2016-06-21T10:17:12.903Z,22.76
2016-06-21T10:18:13.013Z,22.72
2016-06-21T10:19:13.434Z,22.76
2016-06-21T10:20:12.315Z,22.75
2016-06-21T10:21:12.937Z,22.7
2016-06-21T10:22:12.957Z,22.76
2016-06-21T10:23:12.317Z,22.79
2016-06-21T10:24:12.339Z,22.7
2016-06-21T10:25:12.353Z,22.85
2016-06-21T10:26:12.954Z,22.76
2016-06-21T10:27:12.967Z,22.82
2016-06-21T10:28:12.348Z,22.79
2016-06-21T10:29:12.981Z,22.79
2016-06-21T10:30:14.115Z,22.79
2016-06-21T10:31:12.362Z,22.79
2016-06-21T10:32:13.281Z,22.67
2016-06-21T10:33:13.001Z,22.76
2016-06-21T10:34:12.994Z,22.7
2016-06-21T10:35:12.386Z,22.64
2016-06-21T10:36:12.389Z,22.72
2016-06-21T10:37:13.016Z,22.64
2016-06-21T10:38:12.392Z,22.68
2016-06-21T10:39:12.471Z,22.7
2016-06-21T10:40:12.418Z,22.75
2016-06-21T10:41:11.785Z,22.73
2016-06-21T10:42:13.025Z,22.77
2016-06-21T10:43:13.540Z,22.79
2016-06-21T10:44:12.415Z,22.8
2016-06-21T10:45:12.940Z,22.77
2016-06-21T10:46:11.822Z,22.8
2016-06-21T10:47:12.440Z,22.79
2016-06-21T10:48:12.449Z,22.82
2016-06-21T10:49:13.304Z,22.77
2016-06-21T10:50:12.455Z,22.83
2016-06-21T10:51:13.096Z,22.79
2016-06-21T10:52:14.035Z,22.77
2016-06-21T10:53:12.461Z,22.8
2016-06-21T10:54:13.559Z,22.75
2016-06-21T10:55:13.138Z,22.8
2016-06-21T10:56:12.482Z,22.82
2016-06-21T10:57:13.122Z,22.83
2016-06-21T10:58:13.115Z,22.83
2016-06-21T10:59:13.128Z,22.86
2016-06-21T11:00:12.527Z,22.83
2016-06-21T11:01:13.138Z,22.83
2016-06-21T11:02:13.144Z,22.82
2016-06-21T11:03:12.539Z,22.86
2016-06-21T11:04:13.167Z,22.94
2016-06-21T11:05:13.007Z,22.95
2016-06-21T11:06:12.554Z,22.9
2016-06-21T11:07:13.194Z,22.91
2016-06-21T11:08:12.560Z,22.86
2016-06-21T11:09:12.555Z,22.94
2016-06-21T11:10:13.199Z,22.83
2016-06-21T11:11:12.570Z,22.94
2016-06-21T11:12:13.186Z,22.97
2016-06-21T11:13:12.583Z,22.88
2016-06-21T11:14:14.409Z,22.94
2016-06-21T11:15:12.605Z,22.9
2016-06-21T11:16:13.150Z,22.97
2016-06-21T11:17:13.229Z,22.8
2016-06-21T11:18:13.253Z,22.85
2016-06-21T11:19:13.238Z,22.86
2016-06-21T11:20:13.246Z,22.88
2016-06-21T11:21:13.314Z,22.9
2016-06-21T11:22:13.271Z,22.94
2016-06-21T11:23:13.404Z,22.86
2016-06-21T11:24:12.027Z,22.97
2016-06-21T11:25:12.067Z,22.88
2016-06-21T11:26:12.652Z,22.83
2016-06-21T11:27:14.249Z,22.95
2016-06-21T11:28:13.286Z,22.86
2016-06-21T11:29:13.295Z,23
2016-06-21T11:30:13.327Z,22.92
2016-06-21T11:31:12.693Z,23.07
2016-06-21T11:32:12.063Z,23.05
2016-06-21T11:33:13.369Z,23.09
2016-06-21T11:34:12.850Z,22.98
2016-06-21T11:35:13.336Z,22.94
2016-06-21T11:36:12.725Z,23.04
2016-06-21T11:37:13.339Z,23.01
2016-06-21T11:38:13.537Z,23.01
2016-06-21T11:39:12.741Z,23.05
2016-06-21T11:40:12.766Z,23.01
2016-06-21T11:41:13.369Z,23.01
2016-06-21T11:42:12.778Z,23.01
2016-06-21T11:43:12.772Z,23.02
2016-06-21T11:44:12.761Z,23
2016-06-21T11:45:13.070Z,23.07
2016-06-21T11:46:12.776Z,23.07
2016-06-21T11:47:12.794Z,23.01
2016-06-21T11:48:13.415Z,22.97
2016-06-21T11:49:12.784Z,23.01
2016-06-21T11:50:13.414Z,23.07
2016-06-21T11:51:12.826Z,23
2016-06-21T11:52:13.450Z,23.16
2016-06-21T11:53:13.434Z,23.19
2016-06-21T11:54:13.451Z,23.15
2016-06-21T11:55:12.821Z,23.13
2016-06-21T11:56:14.566Z,23.25
2016-06-21T11:57:13.456Z,23.17
2016-06-21T11:58:13.504Z,23.13
2016-06-21T11:59:12.858Z,23.19
2016-06-21T12:00:14.447Z,23.19
2016-06-21T12:01:13.514Z,23.19
2016-06-21T12:02:12.872Z,23.23
2016-06-21T12:03:12.873Z,23.25
2016-06-21T12:04:13.496Z,23.22
2016-06-21T12:05:13.524Z,23.25
2016-06-21T12:06:12.889Z,23.19
2016-06-21T12:07:14.186Z,23.22
2016-06-21T12:08:12.287Z,23.23
2016-06-21T12:09:13.932Z,23.23
2016-06-21T12:10:12.917Z,23.25
2016-06-21T12:11:12.936Z,23.31
2016-06-21T12:12:12.935Z,23.33
2016-06-21T12:13:12.929Z,23.32
2016-06-21T12:14:12.950Z,23.38
2016-06-21T12:15:13.578Z,23.38
2016-06-21T12:16:12.950Z,23.4
2016-06-21T12:17:13.586Z,23.39
2016-06-21T12:18:14.440Z,23.42
2016-06-21T12:19:12.978Z,23.39
2016-06-21T12:20:14.166Z,23.4
2016-06-21T12:21:13.601Z,23.36
2016-06-21T12:22:13.615Z,23.38
2016-06-21T12:23:13.227Z,23.33
2016-06-21T12:24:13.615Z,23.33
2016-06-21T12:25:13.641Z,23.38
2016-06-21T12:26:13.628Z,23.39
2016-06-21T12:27:13.014Z,23.38
2016-06-21T12:28:13.034Z,23.39
2016-06-21T12:29:13.802Z,23.47
2016-06-21T12:30:13.697Z,23.43
2016-06-21T12:31:14.214Z,23.46
2016-06-21T12:32:13.674Z,23.51
2016-06-21T12:33:13.107Z,23.46
2016-06-21T12:34:13.049Z,23.46
2016-06-21T12:35:13.059Z,23.55
2016-06-21T12:36:13.102Z,23.47
2016-06-21T12:37:13.062Z,23.51
2016-06-21T12:39:12.474Z,23.42
2016-06-21T12:40:12.465Z,23.43
2016-06-21T12:41:12.490Z,23.36
2016-06-21T12:42:13.749Z,23.36
2016-06-21T12:43:13.723Z,23.38
2016-06-21T12:44:13.752Z,23.38
2016-06-21T12:45:12.498Z,23.39
2016-06-21T12:46:13.736Z,23.43
2016-06-21T12:47:13.747Z,23.46
2016-06-21T12:48:13.131Z,23.39
2016-06-21T12:49:13.149Z,23.36
2016-06-21T12:50:12.535Z,23.36
2016-06-21T12:51:13.157Z,23.38
2016-06-21T12:52:13.201Z,23.4
2016-06-21T12:53:14.538Z,23.39
2016-06-21T12:54:13.168Z,23.39
2016-06-21T12:55:13.802Z,23.43
2016-06-21T12:56:13.186Z,23.42
2016-06-21T12:57:13.796Z,23.4